Portada
METAR-TAF:

METAR-TAF

Aeroports :

Aeroport Internacional Maiquetía Simón Bolívar

Caracas, Veneçuela

latitud: 10-36N, longitud: 066-59W, altitud: 43 m

Observació

L'informe es va fer fa 20 minuts, a les 11:02 UTC
Vent 2 kt del Oest
Temperatura 23°C
Humitat 83%
Pressió 1011 hPa

METAR: SVMI 121102Z AUTO 26002KT NCD 23/20 Q1011

Hora: 07:22 (11:22 UTC)

Pronòstic

L'informe es va fer fa 7 hores i 22 minuts, a les 04:00 UTC
Pronòstic vàlid del 12 a les 06 UTC al 13 a les 06 UTC
Vent kt del Est
Visibilitat 10 km o més
Escasses núvols a una alçada de 1600 ft
Núvols disperses a una alçada de 10000 ft
Probabilitat 30% :
Temporalment
l' 12 a les 06 UTC al 12 a les 10 UTC
Vent kt del Nord
Visibilitat: 9000 m
Escasses núvols a una alçada de 1600 ft
Núvols disperses a una alçada de 10000 ft
plugim

TAF: SVMI 120400Z 1206/1306 09000KT 9999 FEW016 SCT100 TX28/18Z TN22/08Z PROB30 TEMPO 1206/1210 00000KT 9000 -DZ FEW016 SCT100

Observacions i pronòstics meteorològics de més de 4000 aeroports (METAR i TAF).

Les estacions disponibles són els punts grocs i vermells al mapa.

Posi el ratolí al punt desitjat per veure el nom de l'estació.

Feu clic per veure les observacions i els pronòstics meteorològics.

Per canviar el mapa: feu clic els botons verds amb una creu de color negre per apropar; al botó verd amb un guió per allunyar la imatge; o en les fletxes verdes per a mapes adjacents.


METAR-TAF: